Terminal Aerodrome Forecast
Issued by NWS

Home | Current Version | Previous Version | Text Only | Print | Product List | Glossary On
Versions: 1 2 3 4 5 6 7 8 9 10 11 12 13 14
000
FTUS46 KOTX 291739
TAFPUW
TAF
KPUW 291739Z 2918/3018 25008KT 6SM -RA BR SCT009 BKN014 OVC025
     FM292000 25008KT P6SM -RA BKN022 OVC040
     FM300200 26006KT P6SM -SHRA SCT025 BKN050
     FM300600 VRB03KT P6SM OVC025
     FM301000 VRB02KT 4SM BR SCT008 OVC015=

USA.gov is the U.S. government's official web portal to all federal, state and local government web resources and services.